Time;durP1;ratioP1;P1;durP2;ratioP2;P2;SDS_P1;SDS_P2;PMS_P1;PMS_P2;Temp;Humidity;BMP_temperature;BMP_pressure;BME280_temperature;BME280_humidity;BME280_pressure;Samples;Min_cycle;Max_cycle;Signal;HPM_P1;HPM_P2
2023/07/19 00:01:16;;;;;;;2.65;2.40;;;;;;;;;;4956485;29;20031;-54
2023/07/19 00:03:41;;;;;;;3.45;2.17;;;;;;;;;;4956900;29;20035;-54
2023/07/19 00:06:07;;;;;;;2.45;2.20;;;;;;;;;;4971366;28;20066;-54
2023/07/19 00:08:32;;;;;;;3.75;2.33;;;;;;;;;;4956392;29;20032;-54
2023/07/19 00:10:58;;;;;;;2.22;2.03;;;;;;;;;;4956094;29;20126;-54
2023/07/19 00:13:23;;;;;;;2.45;2.25;;;;;;;;;;4956491;29;20106;-54
2023/07/19 00:15:49;;;;;;;4.55;2.20;;;;;;;;;;4956522;29;20031;-54
2023/07/19 00:18:14;;;;;;;2.60;2.00;;;;;;;;;;4955828;28;20106;-54
2023/07/19 00:20:40;;;;;;;2.83;2.42;;;;;;;;;;4954760;29;20117;-53
2023/07/19 00:23:05;;;;;;;4.90;2.25;;;;;;;;;;4956263;29;20620;-54
2023/07/19 00:25:30;;;;;;;2.83;2.03;;;;;;;;;;4956527;29;20019;-53
2023/07/19 00:27:55;;;;;;;3.75;1.98;;;;;;;;;;4954646;29;20163;-53
2023/07/19 00:30:21;;;;;;;2.28;2.00;;;;;;;;;;4955727;29;20094;-54
2023/07/19 00:32:47;;;;;;;3.00;2.20;;;;;;;;;;4956098;29;20031;-54
2023/07/19 00:35:13;;;;;;;5.20;2.42;;;;;;;;;;4956454;29;20058;-53
2023/07/19 00:37:39;;;;;;;3.10;2.15;;;;;;;;;;4956152;29;20416;-54
2023/07/19 00:40:04;;;;;;;2.10;2.00;;;;;;;;;;4956032;29;20063;-54
2023/07/19 00:42:30;;;;;;;2.30;2.10;;;;;;;;;;4955878;29;20042;-54
2023/07/19 00:44:55;;;;;;;3.35;2.17;;;;;;;;;;4955450;29;20033;-54
2023/07/19 00:47:21;;;;;;;3.10;2.03;;;;;;;;;;4956398;29;20035;-54
2023/07/19 00:49:47;;;;;;;3.85;2.22;;;;;;;;;;4938303;29;20042;-54
2023/07/19 00:52:13;;;;;;;3.55;1.95;;;;;;;;;;4970380;28;20032;-54
2023/07/19 00:54:39;;;;;;;3.30;2.22;;;;;;;;;;4955776;29;20115;-54
2023/07/19 00:57:05;;;;;;;3.10;2.20;;;;;;;;;;4938299;29;20031;-54
2023/07/19 00:59:31;;;;;;;3.13;2.05;;;;;;;;;;4938264;29;20455;-54
2023/07/19 01:01:56;;;;;;;2.97;2.08;;;;;;;;;;4955442;29;20114;-54
2023/07/19 01:04:24;;;;;;;2.35;2.08;;;;;;;;;;4956333;29;20107;-54
2023/07/19 01:06:52;;;;;;;2.30;2.10;;;;;;;;;;4938748;29;20494;-54
2023/07/19 01:09:17;;;;;;;2.20;2.08;;;;;;;;;;4954362;29;20031;-54
2023/07/19 01:11:43;;;;;;;2.22;2.03;;;;;;;;;;4954665;29;20027;-54
2023/07/19 01:14:09;;;;;;;2.25;2.15;;;;;;;;;;4954565;29;20042;-54
2023/07/19 01:16:34;;;;;;;2.03;1.88;;;;;;;;;;4954191;29;20035;-54
2023/07/19 01:19:00;;;;;;;2.08;1.83;;;;;;;;;;4938159;29;20027;-54
2023/07/19 01:21:25;;;;;;;2.50;2.08;;;;;;;;;;4956011;29;20090;-54
2023/07/19 01:23:51;;;;;;;2.00;1.90;;;;;;;;;;4955294;29;20075;-54
2023/07/19 01:26:16;;;;;;;3.05;2.17;;;;;;;;;;4954175;29;20126;-54
2023/07/19 01:28:42;;;;;;;2.38;2.17;;;;;;;;;;4956323;28;20038;-54
2023/07/19 01:31:09;;;;;;;3.95;2.13;;;;;;;;;;4959254;29;20035;-54
2023/07/19 01:33:35;;;;;;;3.88;2.15;;;;;;;;;;4958942;29;20130;-54
2023/07/19 01:36:00;;;;;;;2.70;1.92;;;;;;;;;;4958188;29;20058;-54
2023/07/19 01:38:26;;;;;;;2.58;2.17;;;;;;;;;;4959196;29;20097;-54
2023/07/19 01:40:51;;;;;;;2.67;2.03;;;;;;;;;;4958069;29;20510;-54
2023/07/19 01:43:18;;;;;;;2.13;1.92;;;;;;;;;;4941583;29;20023;-53
2023/07/19 01:45:45;;;;;;;2.00;1.75;;;;;;;;;;4959159;28;20406;-53
2023/07/19 01:48:12;;;;;;;2.10;1.90;;;;;;;;;;4958654;29;20035;-53
2023/07/19 01:50:37;;;;;;;2.03;1.92;;;;;;;;;;4959322;29;20043;-54
2023/07/19 01:53:03;;;;;;;3.42;2.08;;;;;;;;;;4958738;29;20468;-53
2023/07/19 01:55:28;;;;;;;2.33;1.98;;;;;;;;;;4958652;29;20090;-53
2023/07/19 01:57:54;;;;;;;1.80;1.70;;;;;;;;;;4957398;29;20035;-53
2023/07/19 02:00:19;;;;;;;2.47;1.70;;;;;;;;;;4957756;29;20086;-54
2023/07/19 02:02:45;;;;;;;1.63;1.52;;;;;;;;;;4958463;29;20031;-54
2023/07/19 02:05:10;;;;;;;2.03;1.83;;;;;;;;;;4958479;29;20031;-54
2023/07/19 02:07:36;;;;;;;2.45;2.10;;;;;;;;;;4941141;29;20479;-54
2023/07/19 02:10:02;;;;;;;3.72;1.60;;;;;;;;;;4958515;29;20432;-54
2023/07/19 02:12:27;;;;;;;2.47;2.10;;;;;;;;;;4958392;29;20054;-54
2023/07/19 02:14:54;;;;;;;2.22;2.03;;;;;;;;;;4957027;29;20055;-53
2023/07/19 02:17:19;;;;;;;5.88;1.92;;;;;;;;;;4957798;29;20019;-53
2023/07/19 02:19:44;;;;;;;2.00;1.90;;;;;;;;;;4957008;29;20401;-54
2023/07/19 02:22:10;;;;;;;2.25;2.00;;;;;;;;;;4941815;29;20196;-54
2023/07/19 02:24:36;;;;;;;2.08;1.85;;;;;;;;;;4958352;29;20110;-54
2023/07/19 02:27:01;;;;;;;2.33;1.80;;;;;;;;;;4958662;29;20087;-54
2023/07/19 02:29:26;;;;;;;1.83;1.73;;;;;;;;;;4958535;29;20042;-54
2023/07/19 02:31:52;;;;;;;3.10;1.75;;;;;;;;;;4958613;29;20027;-54
2023/07/19 02:34:21;;;;;;;3.10;1.52;;;;;;;;;;4958149;29;20061;-54
2023/07/19 02:36:48;;;;;;;3.55;1.85;;;;;;;;;;4957881;29;20027;-54
2023/07/19 02:39:13;;;;;;;2.88;1.90;;;;;;;;;;4958220;29;20518;-54
2023/07/19 02:41:38;;;;;;;2.13;1.92;;;;;;;;;;4957210;28;20078;-56
2023/07/19 02:44:04;;;;;;;2.00;1.90;;;;;;;;;;4958344;29;20097;-54
2023/07/19 02:46:29;;;;;;;2.22;1.95;;;;;;;;;;4957748;29;20096;-54
2023/07/19 02:48:54;;;;;;;2.58;1.63;;;;;;;;;;4957647;29;20027;-55
2023/07/19 02:51:20;;;;;;;2.72;1.85;;;;;;;;;;4957660;29;20038;-54
2023/07/19 02:53:45;;;;;;;16.70;2.55;;;;;;;;;;4956457;29;20023;-54
2023/07/19 02:56:11;;;;;;;7.18;1.95;;;;;;;;;;4957540;29;20391;-54
2023/07/19 02:58:36;;;;;;;4.20;1.88;;;;;;;;;;4972662;28;20083;-54
2023/07/19 03:01:01;;;;;;;3.28;1.65;;;;;;;;;;4957452;29;20058;-54
2023/07/19 03:03:26;;;;;;;2.00;1.80;;;;;;;;;;4972734;28;20039;-54
2023/07/19 03:05:53;;;;;;;3.85;2.33;;;;;;;;;;4972516;28;20042;-54
2023/07/19 03:08:18;;;;;;;2.35;1.90;;;;;;;;;;4956600;29;20110;-54
2023/07/19 03:10:44;;;;;;;1.70;1.60;;;;;;;;;;4957790;29;20118;-54
2023/07/19 03:13:09;;;;;;;1.60;1.50;;;;;;;;;;4957319;29;20438;-54
2023/07/19 03:15:35;;;;;;;2.22;1.92;;;;;;;;;;4924272;29;20062;-54
2023/07/19 03:18:01;;;;;;;3.65;2.33;;;;;;;;;;4955930;29;20058;-54
2023/07/19 03:20:27;;;;;;;4.22;2.10;;;;;;;;;;4957001;29;20446;-54
2023/07/19 03:22:53;;;;;;;2.72;2.08;;;;;;;;;;4940092;29;20122;-54
2023/07/19 03:25:19;;;;;;;1.92;1.80;;;;;;;;;;4972112;28;20031;-54
2023/07/19 03:27:44;;;;;;;1.88;1.77;;;;;;;;;;4957454;29;20459;-54
2023/07/19 03:30:10;;;;;;;2.42;1.90;;;;;;;;;;4955773;29;20074;-55
2023/07/19 03:32:36;;;;;;;4.10;1.75;;;;;;;;;;4923588;29;20493;-54
2023/07/19 03:35:01;;;;;;;4.72;2.15;;;;;;;;;;4956812;29;20027;-54
2023/07/19 03:37:28;;;;;;;4.15;2.17;;;;;;;;;;4955716;29;20463;-54
2023/07/19 03:39:54;;;;;;;2.30;1.75;;;;;;;;;;4939753;29;20457;-54
2023/07/19 03:42:21;;;;;;;4.95;1.75;;;;;;;;;;4939998;29;20031;-54
2023/07/19 03:44:46;;;;;;;4.45;1.80;;;;;;;;;;4956895;29;20041;-54
2023/07/19 03:47:12;;;;;;;4.45;1.83;;;;;;;;;;4940024;29;20379;-54
2023/07/19 03:49:37;;;;;;;3.03;1.95;;;;;;;;;;4971635;28;20041;-54
2023/07/19 03:52:04;;;;;;;2.90;1.92;;;;;;;;;;4938280;29;20027;-55
2023/07/19 03:54:30;;;;;;;2.97;1.70;;;;;;;;;;4939022;29;20043;-55
2023/07/19 03:56:55;;;;;;;5.97;2.17;;;;;;;;;;4939597;29;20141;-55
2023/07/19 03:59:21;;;;;;;5.15;3.22;;;;;;;;;;4956655;29;20027;-55
2023/07/19 04:01:47;;;;;;;3.00;2.40;;;;;;;;;;4972104;28;20118;-54
2023/07/19 04:04:12;;;;;;;2.53;2.28;;;;;;;;;;4955247;29;20474;-54
2023/07/19 04:06:38;;;;;;;4.47;2.00;;;;;;;;;;4971619;28;20031;-54
2023/07/19 04:09:04;;;;;;;1.92;1.83;;;;;;;;;;4955820;29;20035;-54
2023/07/19 04:11:29;;;;;;;3.00;1.88;;;;;;;;;;4954781;29;20085;-54
2023/07/19 04:13:54;;;;;;;2.28;1.83;;;;;;;;;;4956349;29;20027;-54
2023/07/19 04:16:20;;;;;;;1.90;1.77;;;;;;;;;;4939049;29;20118;-55
2023/07/19 04:18:46;;;;;;;2.22;1.83;;;;;;;;;;4954216;29;20075;-56
2023/07/19 04:21:12;;;;;;;1.92;1.83;;;;;;;;;;4952492;28;20034;-55
2023/07/19 04:23:38;;;;;;;2.58;1.95;;;;;;;;;;4938993;29;20038;-55
2023/07/19 04:26:05;;;;;;;3.42;1.70;;;;;;;;;;4938725;29;20031;-54
2023/07/19 04:28:31;;;;;;;1.83;1.70;;;;;;;;;;4971155;28;20043;-54
2023/07/19 04:30:56;;;;;;;4.18;2.47;;;;;;;;;;4938883;29;20050;-55
2023/07/19 04:33:22;;;;;;;2.42;2.22;;;;;;;;;;4938776;29;20118;-54
2023/07/19 04:35:47;;;;;;;3.10;1.98;;;;;;;;;;4970930;28;20032;-55
2023/07/19 04:38:13;;;;;;;2.88;2.17;;;;;;;;;;4939070;29;20111;-54
2023/07/19 04:40:38;;;;;;;2.67;2.05;;;;;;;;;;4938841;29;20031;-55
2023/07/19 04:43:04;;;;;;;2.20;1.98;;;;;;;;;;4938865;29;20462;-55
2023/07/19 04:45:30;;;;;;;3.15;2.00;;;;;;;;;;4954763;29;20027;-55
2023/07/19 04:47:56;;;;;;;5.38;2.08;;;;;;;;;;4956029;29;20105;-55
2023/07/19 04:50:24;;;;;;;3.00;1.65;;;;;;;;;;4954584;29;20027;-55
2023/07/19 04:52:51;;;;;;;2.17;2.03;;;;;;;;;;4954341;29;20035;-55
2023/07/19 04:55:16;;;;;;;1.77;1.63;;;;;;;;;;4955798;29;20023;-55
2023/07/19 04:57:42;;;;;;;2.33;1.90;;;;;;;;;;4938328;29;20441;-54
2023/07/19 05:00:11;;;;;;;3.45;2.08;;;;;;;;;;4938625;29;20039;-54
2023/07/19 05:02:43;;;;;;;1.90;1.80;;;;;;;;;;4938575;29;20034;-55
2023/07/19 05:05:09;;;;;;;3.45;2.10;;;;;;;;;;4938293;29;20035;-55
2023/07/19 05:07:35;;;;;;;2.45;2.25;;;;;;;;;;4954521;29;20114;-55
2023/07/19 05:10:03;;;;;;;2.08;1.98;;;;;;;;;;4955173;29;20027;-55
2023/07/19 05:12:29;;;;;;;3.42;2.40;;;;;;;;;;4938432;29;20086;-54
2023/07/19 05:14:56;;;;;;;2.15;1.90;;;;;;;;;;4970232;28;20015;-55
2023/07/19 05:17:21;;;;;;;2.95;2.15;;;;;;;;;;4937873;29;20085;-55
2023/07/19 05:19:47;;;;;;;2.05;1.95;;;;;;;;;;4954432;29;20114;-55
2023/07/19 05:22:13;;;;;;;2.25;1.98;;;;;;;;;;4938247;29;20603;-54
2023/07/19 05:24:39;;;;;;;2.00;1.90;;;;;;;;;;4953936;28;20105;-55
2023/07/19 05:27:04;;;;;;;2.47;2.28;;;;;;;;;;4954295;29;20479;-55
2023/07/19 05:29:30;;;;;;;2.25;2.05;;;;;;;;;;4955704;29;20031;-54
2023/07/19 05:31:55;;;;;;;2.33;2.10;;;;;;;;;;4953806;29;20110;-54
2023/07/19 05:34:21;;;;;;;2.30;1.88;;;;;;;;;;4953750;29;20510;-54
2023/07/19 05:36:47;;;;;;;2.45;2.17;;;;;;;;;;4955159;29;20035;-54
2023/07/19 05:39:12;;;;;;;2.65;2.17;;;;;;;;;;4954483;28;20038;-54
2023/07/19 05:41:38;;;;;;;2.40;2.20;;;;;;;;;;4937334;29;20035;-54
2023/07/19 05:44:03;;;;;;;2.30;2.20;;;;;;;;;;4954637;29;20019;-54
2023/07/19 05:46:28;;;;;;;4.57;2.17;;;;;;;;;;4954587;29;20062;-54
2023/07/19 05:48:54;;;;;;;2.28;2.08;;;;;;;;;;4954560;28;20450;-54
2023/07/19 05:51:19;;;;;;;2.95;2.17;;;;;;;;;;4954355;29;20039;-54
2023/07/19 05:53:44;;;;;;;5.45;2.28;;;;;;;;;;4954570;29;20372;-55
2023/07/19 05:56:10;;;;;;;2.38;2.03;;;;;;;;;;4937723;29;20506;-54
2023/07/19 05:58:35;;;;;;;2.80;2.53;;;;;;;;;;4955488;29;20032;-54
2023/07/19 06:01:03;;;;;;;3.00;2.40;;;;;;;;;;4954945;29;20023;-55
2023/07/19 06:03:29;;;;;;;5.35;2.85;;;;;;;;;;4954880;29;20039;-53
2023/07/19 06:05:54;;;;;;;5.05;2.42;;;;;;;;;;4955105;29;20153;-53
2023/07/19 06:08:19;;;;;;;2.95;2.40;;;;;;;;;;4955392;29;20367;-53
2023/07/19 06:10:45;;;;;;;3.50;2.70;;;;;;;;;;4969109;28;20114;-53
2023/07/19 06:13:14;;;;;;;3.13;2.63;;;;;;;;;;4954342;29;20027;-53
2023/07/19 06:15:39;;;;;;;3.70;3.35;;;;;;;;;;4938210;29;20375;-53
2023/07/19 06:18:04;;;;;;;8.90;5.65;;;;;;;;;;4958277;28;20035;-53
2023/07/19 06:20:30;;;;;;;4.53;4.05;;;;;;;;;;4939616;29;20053;-53
2023/07/19 06:22:55;;;;;;;3.42;2.78;;;;;;;;;;4956220;29;20035;-53
2023/07/19 06:25:20;;;;;;;3.35;3.05;;;;;;;;;;4938889;29;20059;-53
2023/07/19 06:27:45;;;;;;;3.88;2.80;;;;;;;;;;4956122;29;20035;-53
2023/07/19 06:30:11;;;;;;;3.28;2.63;;;;;;;;;;4956119;29;20431;-53
2023/07/19 06:32:36;;;;;;;4.72;2.25;;;;;;;;;;4955916;29;20050;-53
2023/07/19 06:35:02;;;;;;;2.75;2.10;;;;;;;;;;4956017;29;20050;-53
2023/07/19 06:37:27;;;;;;;4.30;2.50;;;;;;;;;;4956037;29;20019;-53
2023/07/19 06:39:53;;;;;;;2.15;2.05;;;;;;;;;;4956353;29;20058;-53
2023/07/19 06:42:18;;;;;;;2.50;2.20;;;;;;;;;;4957869;29;20027;-53
2023/07/19 06:44:44;;;;;;;3.75;2.50;;;;;;;;;;4958094;29;20043;-53
2023/07/19 06:47:09;;;;;;;2.70;2.50;;;;;;;;;;4958032;29;20042;-53
2023/07/19 06:49:34;;;;;;;2.65;2.45;;;;;;;;;;4958187;29;20031;-53
2023/07/19 06:52:00;;;;;;;2.85;2.30;;;;;;;;;;4957698;29;20511;-53
2023/07/19 06:54:25;;;;;;;2.90;2.50;;;;;;;;;;4958147;29;20042;-53
2023/07/19 06:56:50;;;;;;;3.88;2.72;;;;;;;;;;4957888;29;20019;-53
2023/07/19 06:59:15;;;;;;;5.43;2.83;;;;;;;;;;4957613;29;20031;-53
2023/07/19 07:01:41;;;;;;;3.53;2.67;;;;;;;;;;4957783;29;20035;-53
2023/07/19 07:04:09;;;;;;;10.90;3.17;;;;;;;;;;4957488;29;20039;-53
2023/07/19 07:06:34;;;;;;;2.70;2.50;;;;;;;;;;4957647;29;20380;-53
2023/07/19 07:09:00;;;;;;;3.55;2.83;;;;;;;;;;4940534;29;20042;-53
2023/07/19 07:11:25;;;;;;;3.47;2.63;;;;;;;;;;4957289;29;20102;-53
2023/07/19 07:13:50;;;;;;;4.70;2.53;;;;;;;;;;4957298;29;20530;-53
2023/07/19 07:16:16;;;;;;;3.00;2.63;;;;;;;;;;4940043;29;20031;-53
2023/07/19 07:18:41;;;;;;;3.38;2.70;;;;;;;;;;4957223;29;20090;-53
2023/07/19 07:21:07;;;;;;;3.30;2.95;;;;;;;;;;4957712;29;20042;-53
2023/07/19 07:23:32;;;;;;;2.70;2.50;;;;;;;;;;4957117;29;20039;-53
2023/07/19 07:25:57;;;;;;;2.92;2.35;;;;;;;;;;4957308;29;20054;-53
2023/07/19 07:28:23;;;;;;;3.28;2.28;;;;;;;;;;4957278;28;20035;-53
2023/07/19 07:30:48;;;;;;;4.45;2.70;;;;;;;;;;4957169;29;20031;-53
2023/07/19 07:33:13;;;;;;;4.38;2.72;;;;;;;;;;4956809;29;20051;-53
2023/07/19 07:35:39;;;;;;;2.53;2.30;;;;;;;;;;4956877;29;20502;-53
2023/07/19 07:38:04;;;;;;;2.80;2.60;;;;;;;;;;4956847;29;20027;-53
2023/07/19 07:40:30;;;;;;;2.88;2.55;;;;;;;;;;4956755;29;20110;-53
2023/07/19 07:42:55;;;;;;;5.88;2.83;;;;;;;;;;4957003;29;20114;-53
2023/07/19 07:45:21;;;;;;;4.15;2.40;;;;;;;;;;4956691;29;20023;-53
2023/07/19 07:47:46;;;;;;;2.78;2.58;;;;;;;;;;4939464;29;20110;-53
2023/07/19 07:50:12;;;;;;;4.05;2.63;;;;;;;;;;4956833;29;20035;-53
2023/07/19 07:52:38;;;;;;;4.45;2.65;;;;;;;;;;4956778;29;20035;-53
2023/07/19 07:55:06;;;;;;;4.38;2.78;;;;;;;;;;4956537;29;20084;-53
2023/07/19 07:57:36;;;;;;;2.85;2.65;;;;;;;;;;4956768;29;20475;-53
2023/07/19 08:00:02;;;;;;;2.50;2.35;;;;;;;;;;4956698;29;20039;-53
2023/07/19 08:02:27;;;;;;;6.28;2.70;;;;;;;;;;4956378;29;20089;-53
2023/07/19 08:04:52;;;;;;;3.83;2.90;;;;;;;;;;4956348;29;20028;-53
2023/07/19 08:07:18;;;;;;;6.97;2.60;;;;;;;;;;4956284;29;20431;-53
2023/07/19 08:09:44;;;;;;;5.18;2.80;;;;;;;;;;4956467;29;20039;-53
2023/07/19 08:12:09;;;;;;;3.75;2.67;;;;;;;;;;4956209;29;20047;-53
2023/07/19 08:14:35;;;;;;;3.25;2.83;;;;;;;;;;4956741;29;20035;-53
2023/07/19 08:17:00;;;;;;;3.25;2.95;;;;;;;;;;4956139;29;20031;-53
2023/07/19 08:19:26;;;;;;;5.47;2.97;;;;;;;;;;4956100;29;20114;-53
2023/07/19 08:21:51;;;;;;;3.55;3.00;;;;;;;;;;4956087;29;20090;-53
2023/07/19 08:24:16;;;;;;;4.05;2.80;;;;;;;;;;4956294;29;20039;-53
2023/07/19 08:26:42;;;;;;;3.97;2.80;;;;;;;;;;4939248;29;20034;-53
2023/07/19 08:29:07;;;;;;;3.78;2.83;;;;;;;;;;4956228;29;20384;-53
2023/07/19 08:31:33;;;;;;;4.38;3.28;;;;;;;;;;4954609;29;20394;-53
2023/07/19 08:33:58;;;;;;;3.10;2.80;;;;;;;;;;4938451;29;20039;-53
2023/07/19 08:36:23;;;;;;;4.68;2.58;;;;;;;;;;4956140;29;20024;-53
2023/07/19 08:38:49;;;;;;;3.00;2.50;;;;;;;;;;4955460;28;20031;-53
2023/07/19 08:41:16;;;;;;;4.05;2.70;;;;;;;;;;4956045;29;20039;-53
2023/07/19 08:43:43;;;;;;;3.60;3.00;;;;;;;;;;4956043;29;20035;-53
2023/07/19 08:46:13;;;;;;;4.55;2.80;;;;;;;;;;4956014;29;20031;-53
2023/07/19 08:48:38;;;;;;;3.20;2.90;;;;;;;;;;4955967;29;20155;-53
2023/07/19 08:51:05;;;;;;;2.75;2.53;;;;;;;;;;4955606;29;20105;-53
2023/07/19 08:53:30;;;;;;;4.00;2.70;;;;;;;;;;4955935;29;20053;-53
2023/07/19 08:55:57;;;;;;;2.85;2.65;;;;;;;;;;4955612;29;20522;-53
2023/07/19 08:58:22;;;;;;;2.95;2.65;;;;;;;;;;4955582;29;20023;-53
2023/07/19 09:00:48;;;;;;;4.28;2.85;;;;;;;;;;4955533;29;20039;-53
2023/07/19 09:03:15;;;;;;;4.50;2.13;;;;;;;;;;4938333;29;20495;-53
2023/07/19 09:05:40;;;;;;;3.58;2.95;;;;;;;;;;4955492;29;20043;-53
2023/07/19 09:08:05;;;;;;;3.33;2.63;;;;;;;;;;4955743;29;20050;-53
2023/07/19 09:10:32;;;;;;;2.85;2.60;;;;;;;;;;4955897;29;20118;-53
2023/07/19 09:12:57;;;;;;;4.63;2.65;;;;;;;;;;4955732;29;20031;-53
2023/07/19 09:15:23;;;;;;;4.07;2.38;;;;;;;;;;4955385;29;20050;-53
2023/07/19 09:17:49;;;;;;;15.52;7.18;;;;;;;;;;4955925;29;20030;-53
2023/07/19 09:20:15;;;;;;;4.25;3.15;;;;;;;;;;4955666;29;20376;-53
2023/07/19 09:22:41;;;;;;;2.95;2.58;;;;;;;;;;4955671;29;20031;-53
2023/07/19 09:25:07;;;;;;;4.32;2.75;;;;;;;;;;4955344;28;20550;-53
2023/07/19 09:27:33;;;;;;;2.72;2.53;;;;;;;;;;4955362;29;20032;-53
2023/07/19 09:29:58;;;;;;;2.65;2.45;;;;;;;;;;4955482;29;20450;-53
2023/07/19 09:32:24;;;;;;;3.35;2.42;;;;;;;;;;4955564;29;20382;-53
2023/07/19 09:34:52;;;;;;;2.42;2.25;;;;;;;;;;4955083;29;20047;-53
2023/07/19 09:37:20;;;;;;;2.97;2.35;;;;;;;;;;4955254;29;20039;-53
2023/07/19 09:39:45;;;;;;;3.83;3.08;;;;;;;;;;4955453;29;20028;-53
2023/07/19 09:42:13;;;;;;;4.75;2.92;;;;;;;;;;4955487;29;20455;-53
2023/07/19 09:44:38;;;;;;;5.70;3.00;;;;;;;;;;4955161;29;20041;-53
2023/07/19 09:47:08;;;;;;;3.25;3.00;;;;;;;;;;4937999;29;20028;-53
2023/07/19 09:49:34;;;;;;;2.92;2.65;;;;;;;;;;4955486;28;20064;-53
2023/07/19 09:52:01;;;;;;;3.15;2.83;;;;;;;;;;4958712;29;20082;-53
2023/07/19 09:54:27;;;;;;;3.55;2.72;;;;;;;;;;4941593;29;20114;-53
2023/07/19 09:56:52;;;;;;;2.90;2.67;;;;;;;;;;4958980;29;20058;-53
2023/07/19 09:59:20;;;;;;;3.40;2.30;;;;;;;;;;4958601;29;20422;-53
2023/07/19 10:01:46;;;;;;;3.55;2.83;;;;;;;;;;4958587;29;20049;-53
2023/07/19 10:04:24;;;;;;;3.10;2.40;;;;;;;;;;4958869;29;20027;-53
2023/07/19 10:07:02;;;;;;;5.78;2.65;;;;;;;;;;4958729;29;20031;-53
2023/07/19 10:09:31;;;;;;;2.83;2.58;;;;;;;;;;4958757;29;20035;-53
2023/07/19 10:12:00;;;;;;;2.63;2.40;;;;;;;;;;4958631;29;20038;-53
2023/07/19 10:14:27;;;;;;;5.53;2.55;;;;;;;;;;4941672;29;20082;-53
2023/07/19 10:16:57;;;;;;;4.32;2.97;;;;;;;;;;4958405;29;20074;-53
2023/07/19 10:19:23;;;;;;;5.07;3.08;;;;;;;;;;4958634;29;20038;-53
2023/07/19 10:22:07;;;;;;;3.08;2.83;;;;;;;;;;4973067;28;20110;-53
2023/07/19 10:24:33;;;;;;;5.53;2.90;;;;;;;;;;4958537;29;20042;-53
2023/07/19 10:27:03;;;;;;;3.22;2.92;;;;;;;;;;4958422;29;20027;-53
2023/07/19 10:29:37;;;;;;;5.57;3.50;;;;;;;;;;4958114;29;20122;-53
2023/07/19 10:32:03;;;;;;;4.55;3.33;;;;;;;;;;4958035;29;20126;-53
2023/07/19 10:34:29;;;;;;;3.67;3.35;;;;;;;;;;4957907;29;20144;-53
2023/07/19 10:36:55;;;;;;;6.22;3.97;;;;;;;;;;4958009;29;20039;-53
2023/07/19 10:39:22;;;;;;;7.57;4.22;;;;;;;;;;4958213;29;20364;-53
2023/07/19 10:41:50;;;;;;;5.57;4.07;;;;;;;;;;4957891;29;20031;-53
2023/07/19 10:44:16;;;;;;;4.90;3.95;;;;;;;;;;4972954;28;20494;-53
2023/07/19 10:46:42;;;;;;;4.90;3.72;;;;;;;;;;4958056;29;20140;-53
2023/07/19 10:49:07;;;;;;;4.65;3.05;;;;;;;;;;4958020;29;20035;-53
2023/07/19 10:51:33;;;;;;;5.65;3.90;;;;;;;;;;4957673;29;20405;-53
2023/07/19 10:53:59;;;;;;;6.95;3.88;;;;;;;;;;4957945;29;20375;-53
2023/07/19 10:56:24;;;;;;;6.22;4.05;;;;;;;;;;4957620;29;20035;-53
2023/07/19 10:58:50;;;;;;;6.15;3.97;;;;;;;;;;4957604;29;20034;-53
2023/07/19 11:01:16;;;;;;;5.38;3.67;;;;;;;;;;4957554;28;20035;-53
2023/07/19 11:03:45;;;;;;;5.88;3.85;;;;;;;;;;4957748;29;20035;-53
2023/07/19 11:06:11;;;;;;;6.93;4.60;;;;;;;;;;4957717;29;20031;-53
2023/07/19 11:08:36;;;;;;;6.53;4.55;;;;;;;;;;4957708;29;20035;-58
2023/07/19 11:11:02;;;;;;;5.50;4.53;;;;;;;;;;4940146;29;20078;-59
2023/07/19 11:13:27;;;;;;;8.70;5.03;;;;;;;;;;4957335;29;20031;-59
2023/07/19 11:15:54;;;;;;;7.45;5.20;;;;;;;;;;4957863;29;20023;-59
2023/07/19 11:18:23;;;;;;;9.32;4.95;;;;;;;;;;4957236;29;20039;-59
2023/07/19 11:20:48;;;;;;;6.10;3.95;;;;;;;;;;4957447;29;20111;-58
2023/07/19 11:23:14;;;;;;;6.57;4.25;;;;;;;;;;4957403;29;20051;-58
2023/07/19 11:25:39;;;;;;;7.88;4.20;;;;;;;;;;4957353;29;20039;-59
2023/07/19 11:28:05;;;;;;;7.75;4.45;;;;;;;;;;4957046;29;20451;-58
2023/07/19 11:30:37;;;;;;;5.32;4.13;;;;;;;;;;4957207;29;20031;-58
2023/07/19 11:33:03;;;;;;;7.63;4.07;;;;;;;;;;4957013;29;20035;-58
2023/07/19 11:35:29;;;;;;;4.57;3.75;;;;;;;;;;4957198;29;20027;-58
2023/07/19 11:37:55;;;;;;;4.72;3.63;;;;;;;;;;4957419;29;20043;-58
2023/07/19 11:40:23;;;;;;;5.88;4.05;;;;;;;;;;4957104;28;20114;-59
2023/07/19 11:42:50;;;;;;;5.63;3.65;;;;;;;;;;4956781;29;20047;-59
2023/07/19 11:45:20;;;;;;;4.82;3.78;;;;;;;;;;4939852;29;20024;-59
2023/07/19 11:47:47;;;;;;;4.38;2.90;;;;;;;;;;4971894;28;20435;-53
2023/07/19 11:50:13;;;;;;;4.53;3.50;;;;;;;;;;4991537;22;20054;-53
2023/07/19 11:52:46;;;;;;;4.78;3.15;;;;;;;;;;5014918;28;20036;-53
2023/07/19 11:55:12;;;;;;;5.38;2.70;;;;;;;;;;5015407;28;20442;-57
2023/07/19 11:57:38;;;;;;;3.45;2.60;;;;;;;;;;5030048;28;20034;-57
2023/07/19 12:00:36;;;;;;;4.93;3.47;;;;;;;;;;5033840;23;20061;-53
2023/07/19 12:05:48;;;;;;;3.30;3.00;;;;;;;;;;5006573;23;20088;-54
2023/07/19 12:08:15;;;;;;;5.93;3.30;;;;;;;;;;5013331;28;20042;-53
2023/07/19 12:10:40;;;;;;;3.35;3.10;;;;;;;;;;5014682;28;20037;-53
2023/07/19 12:13:05;;;;;;;3.80;3.10;;;;;;;;;;5013934;28;20362;-58
2023/07/19 12:15:30;;;;;;;4.00;3.13;;;;;;;;;;5029551;28;20030;-58
2023/07/19 12:17:56;;;;;;;5.10;3.05;;;;;;;;;;5044070;23;20179;-54
2023/07/19 12:20:52;;;;;;;3.20;2.90;;;;;;;;;;5049772;22;20793;-54
2023/07/19 12:23:18;;;;;;;3.65;2.80;;;;;;;;;;5033033;23;20029;-57
2023/07/19 12:25:43;;;;;;;5.28;2.75;;;;;;;;;;5013342;28;20069;-58
2023/07/19 12:28:09;;;;;;;4.18;2.60;;;;;;;;;;5031846;23;20555;-58
2023/07/19 12:30:34;;;;;;;4.38;3.00;;;;;;;;;;5017323;23;20348;-58
2023/07/19 12:35:48;;;;;;;3.30;2.65;;;;;;;;;;5036787;23;20412;31
2023/07/19 12:38:14;;;;;;;3.10;2.72;;;;;;;;;;4916280;29;20059;-58
2023/07/19 12:40:40;;;;;;;3.05;2.80;;;;;;;;;;5006738;23;20025;-58
2023/07/19 12:43:06;;;;;;;3.47;2.95;;;;;;;;;;5026990;23;20033;-58
2023/07/19 12:45:32;;;;;;;2.83;2.50;;;;;;;;;;5056932;23;20047;-58
2023/07/19 12:47:57;;;;;;;3.00;2.55;;;;;;;;;;5012427;28;20065;-58
2023/07/19 12:50:50;;;;;;;3.55;2.65;;;;;;;;;;5025468;23;20054;-58
2023/07/19 12:56:39;;;;;;;5.00;2.88;;;;;;;;;;5027938;23;20144;-53
2023/07/19 12:59:05;;;;;;;3.92;3.25;;;;;;;;;;5013835;28;20168;-58
2023/07/19 13:04:15;;;;;;;3.67;2.22;;;;;;;;;;4954333;28;20114;-58
2023/07/19 13:06:41;;;;;;;2.80;2.30;;;;;;;;;;4954740;29;20495;-60
2023/07/19 13:09:10;;;;;;;11.82;2.90;;;;;;;;;;4954665;29;20038;-54
2023/07/19 13:11:36;;;;;;;3.78;2.80;;;;;;;;;;4954853;29;20035;-54
2023/07/19 13:14:03;;;;;;;2.95;2.65;;;;;;;;;;4981567;23;20064;-58
2023/07/19 13:16:29;;;;;;;4.00;2.53;;;;;;;;;;5012746;28;20026;-54
2023/07/19 13:18:54;;;;;;;2.75;2.55;;;;;;;;;;5012951;28;20010;-58
2023/07/19 13:21:20;;;;;;;3.03;2.47;;;;;;;;;;5027859;28;20044;-59
2023/07/19 13:23:45;;;;;;;3.22;2.55;;;;;;;;;;5012957;28;20466;-54
2023/07/19 13:26:11;;;;;;;3.05;2.75;;;;;;;;;;4998160;28;20041;-54
2023/07/19 13:28:37;;;;;;;2.10;1.90;;;;;;;;;;5016656;28;20429;-58
2023/07/19 13:31:02;;;;;;;2.28;2.17;;;;;;;;;;5016853;28;20385;-58
2023/07/19 13:33:33;;;;;;;3.78;2.47;;;;;;;;;;5031806;28;20034;-59
2023/07/19 13:36:00;;;;;;;2.47;2.25;;;;;;;;;;5016724;28;20018;-59
2023/07/19 13:38:27;;;;;;;2.83;2.63;;;;;;;;;;5016520;28;20033;-59
2023/07/19 13:40:52;;;;;;;2.03;1.92;;;;;;;;;;5031638;28;20489;-59
2023/07/19 13:43:19;;;;;;;3.15;2.30;;;;;;;;;;5016407;28;20076;-59
2023/07/19 13:45:45;;;;;;;3.15;2.10;;;;;;;;;;5016526;28;20033;-59
2023/07/19 13:48:10;;;;;;;2.80;1.83;;;;;;;;;;5017040;28;20034;-59
2023/07/19 13:50:36;;;;;;;2.40;2.13;;;;;;;;;;5017273;28;20039;-59
2023/07/19 13:53:05;;;;;;;2.40;2.20;;;;;;;;;;4980113;28;20034;-59
2023/07/19 13:55:33;;;;;;;2.40;2.20;;;;;;;;;;4997704;28;20033;-59
2023/07/19 13:57:59;;;;;;;2.72;2.50;;;;;;;;;;4997448;28;20031;-58
2023/07/19 14:00:24;;;;;;;2.15;1.95;;;;;;;;;;5010691;28;20036;-59
2023/07/19 14:02:49;;;;;;;2.30;2.10;;;;;;;;;;5017251;28;20030;-59
2023/07/19 14:05:15;;;;;;;3.33;1.92;;;;;;;;;;4999457;28;20061;-59
2023/07/19 14:07:40;;;;;;;2.65;1.95;;;;;;;;;;5016883;28;20111;-59
2023/07/19 14:10:08;;;;;;;2.65;2.25;;;;;;;;;;5000211;28;20038;-59
2023/07/19 14:12:34;;;;;;;2.47;2.08;;;;;;;;;;5016714;28;20474;-59
2023/07/19 14:14:59;;;;;;;2.40;2.20;;;;;;;;;;4995950;28;20130;-59
2023/07/19 14:17:25;;;;;;;2.60;2.00;;;;;;;;;;4997584;28;20058;-59
2023/07/19 14:19:53;;;;;;;3.38;2.25;;;;;;;;;;4997361;28;20030;-59
2023/07/19 14:22:19;;;;;;;1.90;1.80;;;;;;;;;;4996786;28;20393;-59
2023/07/19 14:24:45;;;;;;;3.17;2.08;;;;;;;;;;4995833;28;20117;-59
2023/07/19 14:27:11;;;;;;;2.17;2.08;;;;;;;;;;4996977;28;20098;-59
2023/07/19 14:29:36;;;;;;;2.20;2.00;;;;;;;;;;4995582;28;20026;-59
2023/07/19 14:32:04;;;;;;;2.67;2.22;;;;;;;;;;4996504;28;20026;-59
2023/07/19 14:34:32;;;;;;;2.33;2.20;;;;;;;;;;4997190;28;20046;-59
2023/07/19 14:36:58;;;;;;;2.58;2.20;;;;;;;;;;5010877;28;20030;-59
2023/07/19 14:39:24;;;;;;;3.13;2.10;;;;;;;;;;5012238;28;20065;-60
2023/07/19 14:41:53;;;;;;;2.85;2.25;;;;;;;;;;4996579;28;20100;-59
2023/07/19 14:44:18;;;;;;;3.50;2.20;;;;;;;;;;4996986;28;20040;-60
2023/07/19 14:46:44;;;;;;;3.85;2.40;;;;;;;;;;4996826;28;20381;-59
2023/07/19 14:49:09;;;;;;;3.05;2.20;;;;;;;;;;4996721;28;20437;-59